Migalovo Air Base


Codes: UUEM/KLD
Name: Migalovo Air Base
City: Tver
Country: Russia
Elevation: 469 ft.
Wikipedia:

Photos at Migalovo Air Base


   Photos courtesy of SpottingLog. You can add your own sightings and photos by signing up for a free trial today.



No photos found.

Weather at Migalovo Air Base


Time (UTC)DescriptionTempratureWindCloud coverageVisibilityPressureHumidity
16-Jun-2024 09:00Clear Sky23°C4 mph, E8%10000m1017hPa58%
16-Jun-2024 12:00Few Clouds24°C7 mph, NE19%10000m1017hPa54%
16-Jun-2024 15:00Broken Clouds22°C7 mph, E69%10000m1016hPa67%
16-Jun-2024 18:00Light Rain18°C4 mph, E100%10000m1016hPa88%
16-Jun-2024 21:00Light Rain17°C7 mph, NE95%10000m1016hPa91%
17-Jun-2024 00:00Overcast Clouds17°C7 mph, NE97%10000m1015hPa91%
17-Jun-2024 03:00Light Rain17°C9 mph, NE100%10000m1014hPa92%
17-Jun-2024 06:00Light Rain16°C11 mph, NE100%10000m1013hPa93%
17-Jun-2024 09:00Light Rain18°C13 mph, E100%10000m1012hPa93%
17-Jun-2024 12:00Light Rain18°C11 mph, E100%4599m1011hPa97%
17-Jun-2024 15:00Light Rain19°C9 mph, E100%10000m1010hPa97%
17-Jun-2024 18:00Light Rain18°C9 mph, E100%10000m1008hPa98%
17-Jun-2024 21:00Light Rain19°C9 mph, N100%0m1007hPa98%
18-Jun-2024 00:00Light Rain17°C4 mph, SE91%10000m1007hPa99%
18-Jun-2024 03:00Light Rain18°C4 mph, SE47%10000m1006hPa97%
18-Jun-2024 06:00Light Rain19°C7 mph, S72%10000m1006hPa95%
18-Jun-2024 09:00Light Rain19°C7 mph, SW100%10000m1006hPa94%
18-Jun-2024 12:00Light Rain18°C13 mph, NW97%10000m1008hPa91%
18-Jun-2024 15:00Overcast Clouds21°C11 mph, NW86%10000m1009hPa74%
18-Jun-2024 18:00Scattered Clouds19°C11 mph, W50%10000m1010hPa79%
18-Jun-2024 21:00Clear Sky15°C7 mph, W0%10000m1011hPa94%
19-Jun-2024 00:00Clear Sky13°C4 mph, W2%10000m1012hPa96%
19-Jun-2024 03:00Scattered Clouds15°C4 mph, SW44%10000m1013hPa88%
19-Jun-2024 06:00Scattered Clouds21°C7 mph, SW44%10000m1013hPa61%
19-Jun-2024 09:00Broken Clouds24°C9 mph, SW75%10000m1011hPa52%
19-Jun-2024 12:00Light Rain23°C11 mph, SW87%10000m1010hPa70%
19-Jun-2024 15:00Light Rain21°C11 mph, SW100%7083m1008hPa84%
19-Jun-2024 18:00Light Rain19°C11 mph, S82%10000m1005hPa88%
19-Jun-2024 21:00Light Rain18°C11 mph, S74%10000m1004hPa96%
20-Jun-2024 00:00Light Rain17°C11 mph, S77%10000m1002hPa97%
20-Jun-2024 03:00Light Rain17°C11 mph, SW100%10000m1002hPa95%
20-Jun-2024 06:00Light Rain13°C11 mph, W100%10000m1004hPa92%
20-Jun-2024 09:00Light Rain14°C11 mph, W100%10000m1004hPa82%
20-Jun-2024 12:00Overcast Clouds14°C11 mph, W100%10000m1005hPa81%
20-Jun-2024 15:00Overcast Clouds14°C11 mph, W100%10000m1006hPa82%
20-Jun-2024 18:00Overcast Clouds13°C9 mph, NW100%10000m1007hPa84%
20-Jun-2024 21:00Broken Clouds11°C7 mph, W72%10000m1007hPa93%
21-Jun-2024 00:00Broken Clouds10°C7 mph, W52%10000m1009hPa94%
21-Jun-2024 03:00Clear Sky12°C7 mph, NW6%10000m1010hPa85%
21-Jun-2024 06:00Scattered Clouds17°C9 mph, NW36%10000m1010hPa67%